Latest Weather Observations for Coldstream

IDV60801

Issued at 12:31 pm EST Thursday 26 May 2016 (issued every 30 minutes, with the page automatically refreshed every 10 minutes)

About weather observations | Map of weather stations | Latest weather observations for VIC | Other Formats
Station Details ID: 086383 Name: COLDSTREAM Lat: -37.72 Lon: 145.41 Height: 83.0 m
Data from the previous 72 hours. | See also: Recent months at Coldstream
Date/Time
EST
Temp
°C
App
Temp
°C
Dew
Point
Rel
Hum
%
Delta-T
°C
Wind Press
QNH
hPa
Press
MSL
hPa
Rain
since 9 am
mm
Dir
 
Spd
km/h
Gust
km/h
Spd
kts
Gust
kts
26/12:30pm 11.0 9.6 10.8 99 0.1 WNW 9 13 5 7 1002.5 1002.5 4.4
26/12:00pm 10.7 9.8 10.5 99 0.1 NNW 6 9 3 5 1002.6 1002.6 3.8
26/11:30am 10.6 9.4 10.3 98 0.2 N 7 13 4 7 1003.0 1003.0 2.8
26/11:00am 10.5 8.9 10.2 98 0.2 N 9 15 5 8 1003.3 1003.3 2.4
26/10:30am 10.2 9.1 9.9 98 0.2 NNE 6 9 3 5 1003.5 1003.5 2.0
26/10:00am 10.0 8.6 9.7 98 0.2 N 7 9 4 5 1003.6 1003.6 1.6
26/09:30am 9.8 8.4 9.5 98 0.2 N 7 9 4 5 1003.8 1003.8 1.2
26/09:00am 9.7 9.5 9.1 96 0.3 CALM 0 0 0 0 1003.9 1003.9 13.2
26/08:30am 9.8 9.6 9.0 95 0.4 CALM 0 0 0 0 1003.7 1003.7 12.4
26/08:00am 9.9 9.6 8.8 93 0.5 CALM 0 0 0 0 1003.7 1003.7 11.8
26/07:30am 10.0 9.7 8.8 92 0.6 CALM 0 0 0 0 1003.6 1003.6 11.2
26/07:00am 10.0 9.7 8.6 91 0.7 CALM 0 0 0 0 1003.5 1003.5 11.2
26/06:30am 10.2 8.5 8.3 88 0.9 N 7 17 4 9 1004.0 1004.0 11.2
26/06:00am 10.8 8.6 7.9 82 1.4 N 9 17 5 9 1004.1 1004.1 11.0
26/05:30am 11.1 8.5 7.6 79 1.7 N 11 19 6 10 1004.2 1004.2 11.0
26/05:00am 11.3 7.5 7.4 77 1.9 N 17 30 9 16 1004.7 1004.7 11.0
26/04:30am 11.1 7.7 7.6 79 1.7 N 15 24 8 13 1004.6 1004.6 11.0
26/04:00am 11.3 7.1 7.4 77 1.9 N 19 32 10 17 1004.9 1004.9 11.0
26/03:30am 11.0 8.4 7.9 81 1.5 N 11 17 6 9 1005.1 1005.1 11.0
26/03:00am 11.0 7.3 8.1 82 1.4 N 17 32 9 17 1005.5 1005.5 11.0
26/02:30am 11.0 7.0 8.4 84 1.3 N 19 28 10 15 1006.1 1006.1 11.0
26/02:00am 11.0 7.0 8.4 84 1.3 N 19 33 10 18 1006.4 1006.4 11.0
26/01:30am 10.8 7.3 8.7 87 1.0 N 17 28 9 15 1006.5 1006.5 10.8
26/01:00am 10.6 8.3 9.0 90 0.8 NNW 11 17 6 9 1006.9 1006.9 10.4
26/12:30am 10.7 7.7 9.3 91 0.7 NNW 15 28 8 15 1007.5 1007.6 10.4
26/12:00am 10.5 7.8 8.9 90 0.8 NNW 13 22 7 12 1008.2 1008.3 9.2
 
Date/Time
EST
Temp
°C
App
Temp
°C
Dew
Point
Rel
Hum
%
Delta-T
°C
Wind Press
QNH
hPa
Press
MSL
hPa
Rain
since 9 am
mm
Dir
 
Spd
km/h
Gust
km/h
Spd
kts
Gust
kts
25/11:30pm 10.8 7.4 9.1 89 0.8 NNW 17 30 9 16 1008.5 1008.6 7.2
25/11:00pm 11.4 7.3 8.6 83 1.4 NNW 20 32 11 17 1008.7 1008.8 5.6
25/10:30pm 11.3 7.8 8.9 85 1.2 NNW 17 26 9 14 1008.6 1008.7 5.4
25/10:00pm 11.3 7.9 9.0 86 1.2 N 17 26 9 14 1008.8 1008.9 5.4
25/09:30pm 11.5 7.8 9.4 87 1.1 N 19 41 10 22 1009.2 1009.3 4.8
25/09:00pm 11.3 8.7 9.4 88 1.0 N 13 20 7 11 1009.3 1009.4 4.0
25/08:30pm 11.9 7.8 8.7 81 1.6 N 20 33 11 18 1009.4 1009.5 3.0
25/08:00pm 12.5 7.5 8.2 75 2.1 N 24 44 13 24 1009.6 1009.7 2.8
25/07:30pm 12.9 8.3 8.2 73 2.3 N 22 39 12 21 1009.7 1009.8 2.8
25/07:00pm 12.3 8.3 8.2 76 2.0 N 19 28 10 15 1009.5 1009.6 2.8
25/06:30pm 12.3 9.9 8.6 78 1.8 N 11 19 6 10 1009.8 1009.9 2.6
25/06:00pm 12.7 9.2 8.6 76 2.1 N 17 26 9 14 1009.6 1009.7 2.6
25/05:30pm 12.6 9.6 9.1 79 1.8 N 15 22 8 12 1009.7 1009.8 2.6
25/05:00pm 12.2 8.9 9.6 84 1.3 N 17 22 9 12 1009.9 1010.0 2.6
25/04:30pm 11.7 10.0 9.9 89 0.9 NNE 9 15 5 8 1010.3 1010.4 2.4
25/04:00pm 12.1 9.5 9.5 84 1.3 NNE 13 20 7 11 1010.7 1010.8 2.0
25/03:30pm 12.4 8.6 9.2 81 1.6 NNE 19 30 10 16 1011.1 1011.2 1.0
25/03:00pm 12.9 9.8 9.0 77 2.0 N 15 20 8 11 1011.4 1011.5 0.2
25/02:30pm 14.0 9.0 8.0 67 3.0 N 24 35 13 19 1011.4 1011.5 0.0
25/02:00pm 14.9 10.1 7.5 61 3.7 N 22 33 12 18 1011.1 1011.2 0.0
25/01:30pm 15.6 11.5 8.6 63 3.6 N 20 37 11 20 1011.4 1011.5 0.0
25/01:00pm 15.1 11.0 8.6 65 3.3 N 20 35 11 19 1012.1 1012.2 0.0
25/12:30pm 14.4 9.5 8.6 68 2.9 N 24 37 13 20 1012.4 1012.5 0.0
25/12:00pm 14.5 10.7 8.9 69 2.9 N 19 30 10 16 1012.9 1013.0 0.0
25/11:30am 14.7 11.1 9.9 73 2.5 N 19 33 10 18 1014.1 1014.1 0.0
25/11:00am 12.9 9.4 8.8 76 2.1 NNW 17 33 9 18 1015.0 1015.0 0.0
25/10:30am 13.2 8.8 9.1 76 2.1 N 22 35 12 19 1015.2 1015.2 0.0
25/10:00am 12.7 8.8 8.6 76 2.0 NNW 19 28 10 15 1015.6 1015.6 0.0
25/09:30am 11.9 9.2 8.9 82 1.5 N 13 20 7 11 1015.6 1015.6 0.0
25/09:00am 9.5 7.7 9.4 99 0.0 N 9 13 5 7 1015.9 1015.9 0.0
25/08:30am 6.4 4.8 6.3 99 0.0 E 4 7 2 4 1016.0 1016.0 0.0
25/08:00am 5.8 4.8 5.7 99 0.0 CALM 0 0 0 0 1016.0 1016.0 0.0
25/07:30am 5.1 4.0 5.0 99 0.0 CALM 0 4 0 2 1016.2 1016.2 0.0
25/07:00am 4.6 2.2 4.5 99 0.0 ESE 6 11 3 6 1016.4 1016.4 0.0
25/06:30am 3.4 1.5 3.1 98 0.1 SSE 2 6 1 3 1016.2 1016.2 0.0
25/06:00am 3.6 1.8 3.3 98 0.1 S 2 7 1 4 1016.3 1016.3 0.0
25/05:30am 4.8 2.5 4.7 99 0.0 S 6 7 3 4 1016.5 1016.5 0.0
25/05:00am 4.1 1.6 4.0 99 0.0 SSE 6 7 3 4 1016.4 1016.4 0.0
25/04:30am 4.6 2.1 4.5 99 0.0 ESE 7 11 4 6 1016.7 1016.7 0.0
25/04:00am 4.4 1.8 4.3 99 0.0 E 7 9 4 5 1017.0 1017.0 0.0
25/03:30am 3.2 1.7 3.1 99 0.0 CALM 0 6 0 3 1017.3 1017.3 0.0
25/03:00am 4.0 1.9 3.9 99 0.0 ESE 4 7 2 4 1017.2 1017.2 0.0
25/02:30am 3.4 0.6 3.3 99 0.0 E 7 11 4 6 1017.3 1017.3 0.0
25/02:00am 3.5 1.3 3.4 99 0.0 S 4 7 2 4 1017.8 1017.9 0.0
25/01:30am 2.8 0.5 2.7 99 0.0 S 4 7 2 4 1018.1 1018.2 0.0
25/01:00am 3.0 0.7 2.9 99 0.0 SE 4 9 2 5 1017.9 1018.0 0.0
25/12:30am 3.0 1.4 2.7 98 0.1 CALM 0 0 0 0 1018.5 1018.6 0.0
25/12:00am 3.8 1.3 3.7 99 0.0 SE 6 13 3 7 1018.6 1018.7 0.0
 
Date/Time
EST
Temp
°C
App
Temp
°C
Dew
Point
Rel
Hum
%
Delta-T
°C
Wind Press
QNH
hPa
Press
MSL
hPa
Rain
since 9 am
mm
Dir
 
Spd
km/h
Gust
km/h
Spd
kts
Gust
kts
24/11:30pm 2.9 0.2 2.6 98 0.1 SSE 6 9 3 5 1018.9 1019.0 0.0
24/11:00pm 3.5 1.3 3.2 98 0.1 SSE 4 7 2 4 1018.8 1018.9 0.0
24/10:30pm 3.2 1.7 2.9 98 0.1 CALM 0 0 0 0 1019.2 1019.3 0.0
24/10:00pm 2.4 0.7 1.8 96 0.2 CALM 0 6 0 3 1019.6 1019.7 0.0
24/09:30pm 3.8 2.4 3.4 97 0.2 CALM 0 0 0 0 1020.1 1020.2 0.0
24/09:00pm 3.0 1.4 2.4 96 0.2 CALM 0 0 0 0 1020.2 1020.3 0.0
24/08:30pm 3.7 2.2 3.0 95 0.3 CALM 0 0 0 0 1020.2 1020.3 0.0
24/08:00pm 3.8 2.3 2.9 94 0.4 CALM 0 0 0 0 1020.2 1020.3 0.0
24/07:30pm 4.4 3.0 3.5 94 0.4 CALM 0 0 0 0 1020.2 1020.3 0.0
24/07:00pm 4.9 3.5 3.7 92 0.5 CALM 0 0 0 0 1020.0 1020.1 0.0
24/06:30pm 6.0 4.8 4.6 91 0.6 CALM 0 0 0 0 1019.8 1019.9 0.0
24/06:00pm 6.4 5.0 3.7 83 1.1 CALM 0 0 0 0 1019.5 1019.6 0.0
24/05:30pm 8.7 7.6 5.3 79 1.5 CALM 0 0 0 0 1019.3 1019.4 0.0
24/05:00pm 12.1 11.3 6.6 69 2.6 CALM 0 0 0 0 1019.5 1019.6 0.0
24/04:30pm 13.1 10.5 6.0 62 3.4 SW 9 15 5 8 1019.7 1019.8 0.0
24/04:00pm 13.8 11.3 6.7 62 3.4 SW 9 13 5 7 1019.4 1019.5 0.0
24/03:30pm 14.3 11.9 7.1 62 3.5 WSW 9 15 5 8 1019.3 1019.4 0.0
24/03:00pm 14.3 11.1 6.9 61 3.6 SW 13 22 7 12 1019.2 1019.3 0.0
24/02:30pm 15.3 11.3 6.6 56 4.3 WSW 17 24 9 13 1019.3 1019.4 0.0
24/02:00pm 15.3 11.4 7.3 59 4.0 W 17 26 9 14 1019.4 1019.5 0.0
24/01:30pm 15.8 12.0 7.6 58 4.1 W 17 30 9 16 1019.3 1019.4 0.0
24/01:00pm 14.3 10.4 7.1 62 3.5 W 17 20 9 11 1019.5 1019.6 0.0
24/12:30pm 14.5 10.4 8.0 65 3.3 W 19 24 10 13 1019.9 1020.0 0.0
24/12:00pm 14.6 12.4 9.2 70 2.8 W 11 17 6 9 1020.3 1020.4 0.0
24/11:30am 13.7 10.8 9.6 76 2.1 W 15 20 8 11 1020.9 1021.0 0.0
24/11:00am 13.3 11.1 9.4 77 2.0 WNW 11 17 6 9 1021.2 1021.3 0.0
24/10:30am 13.0 11.8 9.6 80 1.7 WSW 6 11 3 6 1021.4 1021.5 0.0
24/10:00am 12.0 10.6 9.0 82 1.5 W 6 11 3 6 1021.4 1021.5 0.0
24/09:30am 11.7 11.1 8.9 83 1.4 NW 2 7 1 4 1021.4 1021.5 0.0
24/09:00am 11.1 11.0 9.5 90 0.8 CALM 0 7 0 4 1021.5 1021.6 2.6
24/08:30am 9.8 9.3 9.5 98 0.2 N 2 7 1 4 1021.3 1021.4 2.6
24/08:00am 8.1 7.6 7.8 98 0.1 CALM 0 0 0 0 1021.0 1021.1 2.6
24/07:30am 8.9 8.6 8.8 99 0.0 CALM 0 0 0 0 1020.6 1020.7 2.6
24/07:00am 9.2 9.0 9.1 99 0.0 CALM 0 0 0 0 1020.3 1020.4 2.6
24/06:30am 8.6 8.3 8.5 99 0.0 CALM 0 0 0 0 1020.1 1020.2 2.6
24/06:00am 8.7 8.3 8.4 98 0.1 CALM 0 0 0 0 1019.9 1020.0 2.6
24/05:30am 9.4 8.9 9.3 99 0.0 N 2 7 1 4 1019.7 1019.8 2.6
24/05:00am 9.1 8.5 9.0 99 0.0 NNE 2 7 1 4 1019.7 1019.8 2.6
24/04:30am 9.2 9.0 9.1 99 0.0 CALM 0 9 0 5 1019.6 1019.7 2.6
24/04:00am 8.9 7.5 8.8 99 0.0 ENE 6 7 3 4 1019.3 1019.4 2.6
24/03:30am 8.0 7.5 7.9 99 0.0 CALM 0 0 0 0 1019.5 1019.6 2.2
24/03:00am 6.9 6.2 6.8 99 0.0 CALM 0 0 0 0 1019.6 1019.7 2.2
24/02:30am 7.1 6.4 7.0 99 0.0 CALM 0 0 0 0 1019.5 1019.6 2.2
24/02:00am 6.0 5.0 5.6 97 0.2 CALM 0 6 0 3 1019.4 1019.5 2.2
24/01:30am 7.2 5.3 6.9 98 0.1 ENE 6 9 3 5 1019.5 1019.6 2.2
24/01:00am 7.6 6.6 7.2 97 0.2 NE 2 9 1 5 1019.6 1019.7 2.2
24/12:30am 7.8 7.2 7.2 96 0.3 CALM 0 7 0 4 1019.8 1019.9 2.2
24/12:00am 9.3 9.0 8.7 96 0.3 CALM 0 0 0 0 1019.8 1019.9 2.2
 
Date/Time
EST
Temp
°C
App
Temp
°C
Dew
Point
Rel
Hum
%
Delta-T
°C
Wind Press
QNH
hPa
Press
MSL
hPa
Rain
since 9 am
mm
Dir
 
Spd
km/h
Gust
km/h
Spd
kts
Gust
kts
23/11:30pm 9.8 9.3 9.3 97 0.2 NNE 2 7 1 4 1019.7 1019.8 2.2
23/11:00pm 9.9 8.7 9.4 97 0.2 N 6 9 3 5 1019.7 1019.8 2.2
23/10:30pm 9.7 8.4 9.1 96 0.3 NNE 6 9 3 5 1019.7 1019.8 2.2
23/10:00pm 10.1 8.7 9.5 96 0.3 NNE 7 13 4 7 1019.7 1019.8 2.2
23/09:30pm 10.1 8.9 9.5 96 0.3 N 6 9 3 5 1019.8 1019.9 2.2
23/09:00pm 10.1 9.2 9.3 95 0.4 N 4 9 2 5 1019.5 1019.6 2.2
23/08:30pm 10.2 10.1 9.3 94 0.4 CALM 0 0 0 0 1019.5 1019.6 2.0
23/08:00pm 10.3 9.4 9.2 93 0.5 SE 4 7 2 4 1019.4 1019.5 1.6
23/07:30pm 10.7 9.0 8.5 86 1.1 ESE 7 13 4 7 1019.3 1019.4 0.0
23/07:00pm 11.6 9.8 7.9 78 1.8 N 7 11 4 6 1019.1 1019.2 0.0
23/06:30pm 11.5 9.9 8.2 80 1.6 N 6 11 3 6 1018.9 1019.0 0.0
23/06:00pm 11.8 9.6 7.9 77 1.9 W 9 15 5 8 1018.8 1018.9 0.0
23/05:30pm 12.3 9.6 7.4 72 2.4 WSW 11 19 6 10 1018.4 1018.5 0.0
23/05:00pm 12.7 9.5 7.0 68 2.8 SW 13 19 7 10 1018.0 1018.1 0.0
23/04:30pm 13.2 7.2 5.1 58 3.8 W 26 41 14 22 1017.9 1018.0 0.0
23/04:00pm 14.5 9.5 3.6 48 5.0 W 19 32 10 17 1017.6 1017.7 0.0
23/03:30pm 14.6 9.7 4.0 49 4.9 W 19 28 10 15 1017.5 1017.6 0.0
23/03:00pm 15.0 9.8 3.8 47 5.1 W 20 30 11 16 1017.4 1017.5 0.0
23/02:30pm 15.0 10.1 4.1 48 5.0 WNW 19 32 10 17 1017.2 1017.2 0.0
23/02:00pm 15.1 9.3 4.5 49 4.9 W 24 35 13 19 1017.4 1017.5 0.0
23/01:30pm 15.2 8.2 4.3 48 5.1 W 30 41 16 22 1017.5 1017.6 0.0
23/01:00pm 15.4 9.6 4.5 48 5.1 W 24 35 13 19 1017.8 1017.9 0.0

Other Formats:

Comma delimited format used in spreadsheet applications
http://www.bom.gov.au/fwo/IDV60801/IDV60801.94864.axf

JavaScript Object Notation format (JSON) in row-major order
http://www.bom.gov.au/fwo/IDV60801/IDV60801.94864.json